KBNL/BNL METAR and TAF weather

Enter ICAO airport designator
Station Type Date Time Source
KBNL METAR 2018/10/21 05:35 UTC NOAA

KBNL 210535Z AUTO 28005KT 10SM CLR 15/12 A2996 RMK AO2


Station Type Date Time Source
KBNL Decoded METAR 2018/10/21 05:35 UTC NOAA

Station name not available
Oct 21, 2018 - 01:35 AM EDT / 2018.10.21 0535 UTC
Wind: from the W (280 degrees) at 6 MPH (5 KT):0
Visibility: 10 mile(s):0
Sky conditions: clear
Temperature: 59 F (15 C)
Dew Point: 53 F (12 C)
Relative Humidity: 82%
Pressure (altimeter): 29.96 in. Hg (1014 hPa)
ob: KBNL 210535Z AUTO 28005KT 10SM CLR 15/12 A2996 RMK AO2
cycle: 5

Station Type Date Time Source
KBNL TAF UTC NOAA

Error!


Example: see airport list